createdAt,value
2022-11-28T00:00:38.882Z,100010.28
2022-11-28T00:03:41.285Z,100004.72
2022-11-28T00:06:46.812Z,100008.81
2022-11-28T00:09:49.269Z,100012.75
2022-11-28T00:12:51.653Z,100011.09
2022-11-28T00:15:58.543Z,100002.09
2022-11-28T00:19:02.055Z,100007.84
2022-11-28T00:22:04.474Z,100013.75
2022-11-28T00:25:07.199Z,100003.03
2022-11-28T00:28:09.474Z,100011.72
2022-11-28T00:31:13.923Z,100011.31
2022-11-28T00:34:16.365Z,100009.09
2022-11-28T00:37:18.636Z,100014.72
2022-11-28T00:40:21.000Z,100010.47
2022-11-28T00:43:23.355Z,100007.47
2022-11-28T00:46:26.292Z,100002.91
2022-11-28T00:49:28.648Z,100011.56
2022-11-28T00:52:32.863Z,100007.84
2022-11-28T00:55:35.226Z,100010.94
2022-11-28T00:58:38.947Z,100017.22
2022-11-28T01:01:44.062Z,100015.09
2022-11-28T01:04:46.491Z,100011.31
2022-11-28T01:07:48.864Z,100017.00
2022-11-28T01:10:51.335Z,100010.13
2022-11-28T01:13:55.796Z,100008.81
2022-11-28T01:16:58.432Z,100008.31
2022-11-28T01:20:00.678Z,99995.00
2022-11-28T01:23:03.299Z,99991.63
2022-11-28T01:26:07.367Z,100002.00
2022-11-28T01:29:11.317Z,99995.25
2022-11-28T01:32:13.627Z,99998.38
2022-11-28T01:35:15.994Z,99995.25
2022-11-28T01:38:18.258Z,99994.28
2022-11-28T01:41:24.928Z,99983.06
2022-11-28T01:44:27.049Z,99983.88
2022-11-28T01:47:31.090Z,99973.31
2022-11-28T01:50:36.193Z,99967.88
2022-11-28T01:53:43.088Z,99964.22
2022-11-28T01:57:01.744Z,99959.31
2022-11-28T02:00:09.051Z,99964.59
2022-11-28T02:03:31.032Z,99953.03
2022-11-28T02:06:33.786Z,99952.88
2022-11-28T02:09:36.122Z,99947.59
2022-11-28T02:12:41.400Z,99945.41
2022-11-28T02:16:10.771Z,99945.94
2022-11-28T02:19:31.719Z,99948.38
2022-11-28T02:22:45.943Z,99942.13
2022-11-28T02:26:00.403Z,99946.41
2022-11-28T02:29:29.404Z,99940.31
2022-11-28T02:32:50.096Z,99937.03
2022-11-28T02:36:13.936Z,99940.31
2022-11-28T02:39:31.675Z,99925.19
2022-11-28T02:42:42.767Z,99932.22
2022-11-28T02:46:12.470Z,99927.25
2022-11-28T02:49:27.270Z,99913.19
2022-11-28T02:53:07.262Z,99927.25
2022-11-28T02:56:11.550Z,99915.09
2022-11-28T02:59:37.999Z,99923.63
2022-11-28T03:02:40.397Z,99923.28
2022-11-28T03:05:55.428Z,99922.81
2022-11-28T03:09:26.633Z,99917.72
2022-11-28T03:12:52.015Z,99920.63
2022-11-28T03:16:02.170Z,99909.63
2022-11-28T03:19:33.427Z,99904.16
2022-11-28T03:22:55.069Z,99899.88
2022-11-28T03:26:08.615Z,99896.41
2022-11-28T03:29:31.328Z,99897.06
2022-11-28T03:32:38.105Z,99892.16
2022-11-28T03:35:47.517Z,99888.88
2022-11-28T03:38:55.325Z,99876.13
2022-11-28T03:42:03.674Z,99866.91
2022-11-28T03:45:16.142Z,99869.03
2022-11-28T03:48:34.283Z,99852.56
2022-11-28T03:51:42.050Z,99866.22
2022-11-28T03:54:52.960Z,99850.56
2022-11-28T03:58:03.363Z,99850.38
2022-11-28T04:01:22.192Z,99846.25
2022-11-28T04:04:33.763Z,99849.72
2022-11-28T04:07:42.491Z,99844.44
2022-11-28T04:11:06.230Z,99848.09
2022-11-28T04:14:29.550Z,99841.34
2022-11-28T04:17:37.591Z,99831.97
2022-11-28T04:20:46.361Z,99841.00
2022-11-28T04:23:50.705Z,99845.72
2022-11-28T04:27:00.548Z,99831.63
2022-11-28T04:30:04.519Z,99842.47
2022-11-28T04:33:10.878Z,99835.09
2022-11-28T04:36:17.793Z,99838.34
2022-11-28T04:39:23.572Z,99839.81
2022-11-28T04:42:52.747Z,99844.09
2022-11-28T04:46:04.372Z,99836.72
2022-11-28T04:49:07.015Z,99833.72
2022-11-28T04:52:12.413Z,99826.78
2022-11-28T04:55:33.738Z,99821.97
2022-11-28T04:58:42.046Z,99826.78
2022-11-28T05:01:47.419Z,99821.34
2022-11-28T05:04:52.758Z,99822.72
2022-11-28T05:07:55.176Z,99833.72
2022-11-28T05:10:57.465Z,99819.25
2022-11-28T05:13:59.796Z,99832.69
2022-11-28T05:17:02.149Z,99837.81
2022-11-28T05:20:07.154Z,99836.91
2022-11-28T05:23:09.425Z,99831.91
2022-11-28T05:26:19.607Z,99837.19
2022-11-28T05:29:25.514Z,99842.09
2022-11-28T05:32:31.643Z,99842.81
2022-11-28T05:35:33.948Z,99852.00
2022-11-28T05:38:37.230Z,99852.19
2022-11-28T05:41:40.891Z,99854.84
2022-11-28T05:45:47.520Z,99853.66
2022-11-28T05:48:50.196Z,99863.75
2022-11-28T05:56:42.514Z,99857.28
2022-11-28T05:59:45.399Z,99836.81
2022-11-28T06:03:42.172Z,99853.91
2022-11-28T06:10:45.363Z,99863.03
2022-11-28T06:13:48.906Z,99859.19
2022-11-28T06:16:51.219Z,99861.03
2022-11-28T06:19:53.879Z,99863.09
2022-11-28T06:22:56.276Z,99858.66
2022-11-28T06:26:03.667Z,99860.66
2022-11-28T06:29:05.970Z,99861.78
2022-11-28T06:32:08.343Z,99849.28
2022-11-28T06:35:10.708Z,99862.75
2022-11-28T06:38:14.430Z,99861.91
2022-11-28T06:41:18.711Z,99867.69
2022-11-28T06:44:20.957Z,99874.00
2022-11-28T06:47:26.312Z,99866.56
2022-11-28T06:50:28.704Z,99868.03
2022-11-28T06:53:31.758Z,99875.06
2022-11-28T06:56:34.262Z,99871.91
2022-11-28T06:59:36.563Z,99878.41
2022-11-28T07:02:39.006Z,99877.06
2022-11-28T07:05:41.376Z,99875.03
2022-11-28T07:08:59.328Z,99853.41
2022-11-28T07:12:04.639Z,99856.31
2022-11-28T07:15:07.934Z,99865.75
2022-11-28T07:18:10.392Z,99873.13
2022-11-28T07:21:14.693Z,99847.47
2022-11-28T07:24:19.049Z,99861.50
2022-11-28T07:27:21.366Z,99873.38
2022-11-28T07:30:23.964Z,99865.00
2022-11-28T07:33:27.154Z,99869.81
2022-11-28T07:36:30.384Z,99871.66
2022-11-28T07:39:32.770Z,99852.69
2022-11-28T07:42:35.512Z,99865.53
2022-11-28T07:45:59.291Z,99864.38
2022-11-28T07:49:04.519Z,99841.97
2022-11-28T07:52:07.927Z,99844.03
2022-11-28T07:55:10.187Z,99843.69
2022-11-28T07:58:12.555Z,99846.56
2022-11-28T08:01:26.161Z,99839.41
2022-11-28T08:04:28.503Z,99840.91
2022-11-28T08:07:30.931Z,99845.66
2022-11-28T08:10:33.338Z,99843.81
2022-11-28T08:13:37.774Z,99840.38
2022-11-28T08:16:45.150Z,99841.97
2022-11-28T08:19:47.840Z,99840.53
2022-11-28T08:22:50.200Z,99839.53
2022-11-28T08:26:30.426Z,99847.91
2022-11-28T08:29:33.205Z,99845.44
2022-11-28T08:32:35.645Z,99855.91
2022-11-28T08:35:39.836Z,99861.66
2022-11-28T08:38:53.424Z,99860.16
2022-11-28T08:42:05.490Z,99859.38
2022-11-28T08:45:10.585Z,99860.25
2022-11-28T08:48:12.871Z,99859.09
2022-11-28T08:51:20.910Z,99857.41
2022-11-28T08:54:23.178Z,99856.47
2022-11-28T08:57:25.443Z,99860.78
2022-11-28T09:00:27.759Z,99855.56
2022-11-28T09:03:30.917Z,99852.53
2022-11-28T09:06:33.380Z,99851.53
2022-11-28T09:10:47.421Z,99847.50
2022-11-28T09:13:51.181Z,99836.81
2022-11-28T09:16:53.642Z,99841.16
2022-11-28T09:19:55.964Z,99842.44
2022-11-28T09:22:58.383Z,99843.47
2022-11-28T09:26:00.726Z,99832.25
2022-11-28T09:29:03.221Z,99844.31
2022-11-28T09:32:05.511Z,99840.69
2022-11-28T09:35:08.503Z,99839.63
2022-11-28T09:38:43.281Z,99838.63
2022-11-28T09:42:27.570Z,99832.53
2022-11-28T09:45:31.721Z,99834.56
2022-11-28T09:48:45.081Z,99825.59
2022-11-28T09:51:56.792Z,99805.19
2022-11-28T09:55:05.607Z,99810.81
2022-11-28T09:58:33.516Z,99806.94
2022-11-28T10:01:47.238Z,99805.53
2022-11-28T10:05:12.478Z,99797.38
2022-11-28T10:08:39.654Z,99794.72
2022-11-28T10:12:14.342Z,99797.41
2022-11-28T10:15:39.631Z,99791.69
2022-11-28T10:18:52.638Z,99785.56
2022-11-28T10:22:00.088Z,99789.47
2022-11-28T10:25:08.751Z,99785.63
2022-11-28T10:28:19.227Z,99780.53
2022-11-28T10:31:33.024Z,99784.81
2022-11-28T10:34:45.456Z,99788.69
2022-11-28T10:37:49.432Z,99781.41
2022-11-28T10:42:12.439Z,99777.56
2022-11-28T10:45:23.982Z,99774.25
2022-11-28T10:48:54.352Z,99770.03
2022-11-28T10:52:15.502Z,99766.63
2022-11-28T10:55:59.516Z,99763.75
2022-11-28T10:59:08.090Z,99761.13
2022-11-28T11:02:33.960Z,99757.47
2022-11-28T11:11:20.462Z,99752.00
2022-11-28T11:24:12.081Z,99744.28
2022-11-28T11:28:35.593Z,99751.38
2022-11-28T11:31:51.502Z,99735.34
2022-11-28T11:34:56.354Z,99738.16
2022-11-28T11:38:30.310Z,99751.00
2022-11-28T11:41:35.910Z,99745.91
2022-11-28T11:44:38.496Z,99745.34
2022-11-28T11:47:45.975Z,99746.75
2022-11-28T11:50:54.507Z,99735.50
2022-11-28T11:54:20.227Z,99738.41
2022-11-28T11:57:33.056Z,99728.81
2022-11-28T12:06:13.383Z,99726.56
2022-11-28T12:09:37.967Z,99720.06
2022-11-28T12:17:50.087Z,99721.13
2022-11-28T12:21:13.207Z,99718.47
2022-11-28T12:24:17.798Z,99708.88
2022-11-28T12:27:42.043Z,99710.94
2022-11-28T12:30:57.799Z,99715.59
2022-11-28T12:34:32.981Z,99697.03
2022-11-28T12:38:02.747Z,99704.41
2022-11-28T12:41:31.991Z,99705.56
2022-11-28T12:44:54.288Z,99698.28
2022-11-28T12:48:53.081Z,99698.06
2022-11-28T12:52:32.205Z,99701.50
2022-11-28T12:55:38.863Z,99686.03
2022-11-28T12:59:19.134Z,99693.56
2022-11-28T13:07:27.381Z,99687.47
2022-11-28T13:10:40.565Z,99686.97
2022-11-28T13:13:58.648Z,99680.25
2022-11-28T13:17:22.535Z,99687.41
2022-11-28T13:20:34.204Z,99681.72
2022-11-28T13:24:25.713Z,99677.41
2022-11-28T13:27:39.584Z,99679.47
2022-11-28T13:30:57.281Z,99657.03
2022-11-28T13:34:00.438Z,99673.91
2022-11-28T13:42:01.195Z,99676.94
2022-11-28T13:44:53.203Z,99673.88
2022-11-28T13:47:55.844Z,99675.28
2022-11-28T13:51:19.855Z,99671.41
2022-11-28T13:54:23.111Z,99669.34
2022-11-28T13:57:36.509Z,99665.69
2022-11-28T14:00:40.680Z,99660.16
2022-11-28T14:03:58.589Z,99665.47
2022-11-28T14:07:07.319Z,99661.66
2022-11-28T14:10:43.460Z,99660.47
2022-11-28T14:14:07.898Z,99661.00
2022-11-28T14:17:33.302Z,99659.59
2022-11-28T14:20:53.949Z,99654.09
2022-11-28T14:24:33.704Z,99661.00
2022-11-28T14:27:39.631Z,99653.88
2022-11-28T14:30:45.371Z,99647.56
2022-11-28T14:33:48.313Z,99651.44
2022-11-28T14:37:19.178Z,99648.38
2022-11-28T14:40:58.923Z,99643.09
2022-11-28T14:44:44.024Z,99650.41
2022-11-28T14:48:07.415Z,99655.72
2022-11-28T14:51:09.734Z,99651.03
2022-11-28T14:54:28.484Z,99649.59
2022-11-28T14:57:35.981Z,99637.16
2022-11-28T15:00:54.256Z,99648.00
2022-11-28T15:04:34.945Z,99648.59
2022-11-28T15:07:46.757Z,99652.94
2022-11-28T15:11:36.973Z,99659.06
2022-11-28T15:14:40.431Z,99663.53
2022-11-28T15:17:46.265Z,99661.06
2022-11-28T15:21:02.918Z,99667.44
2022-11-28T15:24:25.364Z,99660.47
2022-11-28T15:27:28.409Z,99661.91
2022-11-28T15:30:33.038Z,99661.72
2022-11-28T15:33:35.453Z,99659.50
2022-11-28T15:36:39.443Z,99666.81
2022-11-28T15:39:48.620Z,99666.41
2022-11-28T15:42:51.271Z,99668.22
2022-11-28T15:46:01.154Z,99668.22
2022-11-28T15:49:05.296Z,99674.31
2022-11-28T15:52:20.156Z,99674.31
2022-11-28T15:55:23.095Z,99672.72
2022-11-28T15:58:31.747Z,99676.56
2022-11-28T16:01:35.130Z,99671.69
2022-11-28T16:04:39.488Z,99669.25
2022-11-28T16:07:44.347Z,99679.44
2022-11-28T16:10:46.765Z,99681.25
2022-11-28T16:13:51.223Z,99675.38
2022-11-28T16:16:54.081Z,99675.38
2022-11-28T16:19:57.200Z,99689.22
2022-11-28T16:23:07.430Z,99682.91
2022-11-28T16:26:35.288Z,99687.38
2022-11-28T16:29:45.468Z,99673.50
2022-11-28T16:32:47.821Z,99670.06
2022-11-28T16:35:51.697Z,99674.72
2022-11-28T16:39:05.804Z,99668.19
2022-11-28T16:42:18.574Z,99674.31
2022-11-28T16:45:33.387Z,99666.13
2022-11-28T16:48:38.736Z,99664.28
2022-11-28T16:51:41.428Z,99677.38
2022-11-28T16:54:44.039Z,99673.28
2022-11-28T16:57:47.194Z,99664.13
2022-11-28T17:00:59.265Z,99672.25
2022-11-28T17:04:02.234Z,99688.75
2022-11-28T17:07:09.517Z,99674.03
2022-11-28T17:10:14.953Z,99674.22
2022-11-28T17:13:17.516Z,99678.94
2022-11-28T17:16:22.911Z,99671.97
2022-11-28T17:19:25.770Z,99680.97
2022-11-28T17:22:41.029Z,99678.69
2022-11-28T17:25:43.702Z,99668.06
2022-11-28T17:28:47.117Z,99680.53
2022-11-28T17:31:50.291Z,99676.84
2022-11-28T17:34:52.734Z,99676.66
2022-11-28T17:37:55.037Z,99684.38
2022-11-28T17:40:57.741Z,99674.81
2022-11-28T17:44:00.321Z,99681.13
2022-11-28T17:47:03.373Z,99684.59
2022-11-28T17:50:06.451Z,99675.63
2022-11-28T17:53:11.848Z,99680.31
2022-11-28T17:56:14.178Z,99676.84
2022-11-28T17:59:18.338Z,99679.69
2022-11-28T18:02:20.734Z,99674.59
2022-11-28T18:05:23.282Z,99679.25
2022-11-28T18:08:25.950Z,99681.69
2022-11-28T18:11:28.729Z,99685.13
2022-11-28T18:14:35.184Z,99692.50
2022-11-28T18:17:40.888Z,99690.84
2022-11-28T18:20:44.532Z,99693.50
2022-11-28T18:23:51.538Z,99691.84
2022-11-28T18:26:53.884Z,99680.66
2022-11-28T18:29:56.172Z,99680.03
2022-11-28T18:32:58.710Z,99689.59
2022-11-28T18:36:19.567Z,99688.16
2022-11-28T18:39:22.680Z,99691.47
2022-11-28T18:42:25.056Z,99696.75
2022-11-28T18:45:27.465Z,99684.09
2022-11-28T18:48:29.849Z,99689.81
2022-11-28T18:51:34.309Z,99696.94
2022-11-28T18:54:38.466Z,99702.22
2022-11-28T18:57:41.440Z,99694.28
2022-11-28T19:00:43.681Z,99698.16
2022-11-28T19:03:51.106Z,99703.22
2022-11-28T19:06:53.883Z,99702.22
2022-11-28T19:09:56.566Z,99692.44
2022-11-28T19:12:59.585Z,99686.75
2022-11-28T19:16:06.708Z,99685.31
2022-11-28T19:19:10.748Z,99686.31
2022-11-28T19:22:14.526Z,99689.38
2022-11-28T19:25:17.043Z,99682.44
2022-11-28T19:28:19.354Z,99687.13
2022-11-28T19:31:23.000Z,99694.06
2022-11-28T19:34:25.925Z,99693.25
2022-11-28T19:37:29.440Z,99695.25
2022-11-28T19:40:31.774Z,99686.88
2022-11-28T19:43:34.978Z,99690.59
2022-11-28T19:46:38.257Z,99692.00
2022-11-28T19:49:40.636Z,99697.69
2022-11-28T19:52:43.119Z,99696.03
2022-11-28T19:55:46.382Z,99698.94
2022-11-28T19:58:49.157Z,99699.94
2022-11-28T20:01:53.826Z,99699.50
2022-11-28T20:04:58.189Z,99697.91
2022-11-28T20:08:01.509Z,99699.09
2022-11-28T20:11:15.350Z,99687.50
2022-11-28T20:14:19.369Z,99695.22
2022-11-28T20:17:21.645Z,99690.53
2022-11-28T20:20:23.897Z,99703.56
2022-11-28T20:23:26.354Z,99696.84
2022-11-28T20:26:29.727Z,99700.31
2022-11-28T20:29:33.298Z,99692.56
2022-11-28T20:32:35.826Z,99685.41
2022-11-28T20:35:38.209Z,99699.69
2022-11-28T20:38:40.601Z,99703.78
2022-11-28T20:41:42.897Z,99704.97
2022-11-28T20:44:45.190Z,99699.06
2022-11-28T20:47:50.003Z,99698.47
2022-11-28T20:50:52.446Z,99693.34
2022-11-28T20:53:56.366Z,99701.91
2022-11-28T20:57:20.188Z,99699.28
2022-11-28T21:00:26.388Z,99691.34
2022-11-28T21:03:29.279Z,99704.34
2022-11-28T21:06:31.657Z,99699.28
2022-11-28T21:09:33.903Z,99703.50
2022-11-28T21:12:36.298Z,99715.16
2022-11-28T21:15:45.720Z,99718.78
2022-11-28T21:18:49.311Z,99712.06
2022-11-28T21:21:51.594Z,99714.91
2022-11-28T21:24:53.862Z,99711.69
2022-11-28T21:27:56.169Z,99710.03
2022-11-28T21:30:58.606Z,99709.22
2022-11-28T21:34:01.290Z,99706.13
2022-11-28T21:37:03.624Z,99708.41
2022-11-28T21:40:06.545Z,99700.66
2022-11-28T21:43:08.873Z,99708.78
2022-11-28T21:46:12.141Z,99705.97
2022-11-28T21:49:14.654Z,99709.84
2022-11-28T21:52:19.351Z,99703.50
2022-11-28T21:55:21.592Z,99713.69
2022-11-28T21:58:26.781Z,99714.50
2022-11-28T22:01:29.916Z,99713.50
2022-11-28T22:04:32.726Z,99711.03
2022-11-28T22:07:36.243Z,99708.59
2022-11-28T22:10:38.607Z,99687.78
2022-11-28T22:13:44.140Z,99700.03
2022-11-28T22:16:46.389Z,99705.31
2022-11-28T22:19:51.282Z,99693.69
2022-11-28T22:22:53.587Z,99700.84
2022-11-28T22:25:55.914Z,99689.00
2022-11-28T22:29:01.200Z,99708.59
2022-11-28T22:32:03.613Z,99701.84
2022-11-28T22:35:09.279Z,99700.03
2022-11-28T22:38:17.216Z,99693.75
2022-11-28T22:41:27.849Z,99690.66
2022-11-28T22:44:31.526Z,99695.56
2022-11-28T22:47:33.787Z,99693.50
2022-11-28T22:50:40.309Z,99695.34
2022-11-28T22:53:42.763Z,99696.16
2022-11-28T22:56:45.026Z,99700.25
2022-11-28T22:59:47.509Z,99696.16
2022-11-28T23:02:49.895Z,99700.03
2022-11-28T23:05:52.584Z,99700.41
2022-11-28T23:08:55.930Z,99694.50
2022-11-28T23:12:01.363Z,99692.69
2022-11-28T23:15:03.942Z,99699.41
2022-11-28T23:18:06.243Z,99697.78
2022-11-28T23:21:09.885Z,99694.31
2022-11-28T23:24:15.336Z,99699.81
2022-11-28T23:27:19.473Z,99696.34
2022-11-28T23:30:21.690Z,99700.41
2022-11-28T23:33:23.935Z,99689.41
2022-11-28T23:36:27.862Z,99695.34
2022-11-28T23:39:30.255Z,99681.44
2022-11-28T23:42:39.129Z,99684.94
2022-11-28T23:45:41.464Z,99686.38
2022-11-28T23:48:43.949Z,99686.59
2022-11-28T23:51:46.213Z,99682.25
2022-11-28T23:54:48.446Z,99688.59
2022-11-28T23:57:50.705Z,99686.97
